createdAt,value
2022-10-26T00:00:49.860Z,4.70
2022-10-26T00:01:50.279Z,5.10
2022-10-26T00:02:50.969Z,5.10
2022-10-26T00:03:50.676Z,5.40
2022-10-26T00:04:50.968Z,4.90
2022-10-26T00:05:51.347Z,4.20
2022-10-26T00:06:51.546Z,4.40
2022-10-26T00:07:51.785Z,4.90
2022-10-26T00:08:52.059Z,4.40
2022-10-26T00:09:52.352Z,4.70
2022-10-26T00:10:52.589Z,4.80
2022-10-26T00:11:52.881Z,5.90
2022-10-26T00:12:53.154Z,4.60
2022-10-26T00:13:53.376Z,4.30
2022-10-26T00:14:53.595Z,5.10
2022-10-26T00:15:54.052Z,7.10
2022-10-26T00:16:54.301Z,4.80
2022-10-26T00:17:54.568Z,5.00
2022-10-26T00:18:54.810Z,4.60
2022-10-26T00:19:55.041Z,4.50
2022-10-26T00:20:55.268Z,4.70
2022-10-26T00:21:55.507Z,5.40
2022-10-26T00:22:55.718Z,4.30
2022-10-26T00:23:56.102Z,4.60
2022-10-26T00:24:56.430Z,4.80
2022-10-26T00:25:56.783Z,4.70
2022-10-26T00:26:56.971Z,5.10
2022-10-26T00:27:57.383Z,4.80
2022-10-26T00:28:57.623Z,5.10
2022-10-26T00:29:57.883Z,4.90
2022-10-26T00:30:58.173Z,4.80
2022-10-26T00:31:58.470Z,4.60
2022-10-26T00:32:58.712Z,5.10
2022-10-26T00:33:58.969Z,4.60
2022-10-26T00:35:07.094Z,6.40
2022-10-26T00:36:00.515Z,4.50
2022-10-26T00:36:59.787Z,4.90
2022-10-26T00:38:00.126Z,4.30
2022-10-26T00:39:00.484Z,5.50
2022-10-26T00:40:00.727Z,5.90
2022-10-26T00:41:00.959Z,6.20
2022-10-26T00:42:01.164Z,5.20
2022-10-26T00:43:01.504Z,5.40
2022-10-26T00:44:01.893Z,5.10
2022-10-26T00:45:02.183Z,5.90
2022-10-26T00:46:02.379Z,5.00
2022-10-26T00:47:02.796Z,5.50
2022-10-26T00:48:03.071Z,5.50
2022-10-26T00:49:03.320Z,5.20
2022-10-26T00:50:03.640Z,5.50
2022-10-26T00:51:03.958Z,5.20
2022-10-26T00:52:04.208Z,5.00
2022-10-26T00:53:04.502Z,4.70
2022-10-26T00:54:04.724Z,5.10
2022-10-26T00:55:05.148Z,5.10
2022-10-26T00:56:05.442Z,5.60
2022-10-26T00:57:05.661Z,4.70
2022-10-26T00:58:06.012Z,4.80
2022-10-26T00:59:06.275Z,5.20
2022-10-26T01:00:06.526Z,5.10
2022-10-26T01:01:06.813Z,5.00
2022-10-26T01:02:07.035Z,6.00
2022-10-26T01:03:07.291Z,5.30
2022-10-26T01:04:07.625Z,5.30
2022-10-26T01:05:07.874Z,5.40
2022-10-26T01:06:08.084Z,4.90
2022-10-26T01:07:08.500Z,5.30
2022-10-26T01:08:08.760Z,5.40
2022-10-26T01:09:08.963Z,5.50
2022-10-26T01:10:09.328Z,5.80
2022-10-26T01:11:09.565Z,5.70
2022-10-26T01:12:09.806Z,4.90
2022-10-26T01:13:10.013Z,5.50
2022-10-26T01:14:10.354Z,5.50
2022-10-26T01:15:10.707Z,5.70
2022-10-26T01:16:10.933Z,5.70
2022-10-26T01:17:11.284Z,5.20
2022-10-26T01:18:11.525Z,5.90
2022-10-26T01:19:11.726Z,6.50
2022-10-26T01:20:12.084Z,5.60
2022-10-26T01:21:12.307Z,7.40
2022-10-26T01:22:12.653Z,5.80
2022-10-26T01:23:12.996Z,5.40
2022-10-26T01:24:13.398Z,5.80
2022-10-26T01:25:13.636Z,5.80
2022-10-26T01:26:13.863Z,5.10
2022-10-26T01:27:14.241Z,6.00
2022-10-26T01:28:14.595Z,6.30
2022-10-26T01:29:14.862Z,6.20
2022-10-26T01:30:15.101Z,5.40
2022-10-26T01:31:15.375Z,5.30
2022-10-26T01:32:15.589Z,5.30
2022-10-26T01:33:15.819Z,5.20
2022-10-26T01:34:16.049Z,5.60
2022-10-26T01:35:16.315Z,5.90
2022-10-26T01:36:16.544Z,5.60
2022-10-26T01:37:16.738Z,5.90
2022-10-26T01:38:17.081Z,5.70
2022-10-26T01:39:17.438Z,5.80
2022-10-26T01:40:17.675Z,5.30
2022-10-26T01:41:17.935Z,5.40
2022-10-26T01:42:18.171Z,5.70
2022-10-26T01:43:18.401Z,5.80
2022-10-26T01:44:18.742Z,5.50
2022-10-26T01:45:19.114Z,5.70
2022-10-26T01:47:19.679Z,5.60
2022-10-26T01:48:19.896Z,5.50
2022-10-26T01:49:20.248Z,6.00
2022-10-26T01:50:20.576Z,5.60
2022-10-26T01:51:20.911Z,5.60
2022-10-26T01:52:21.241Z,5.80
2022-10-26T01:53:21.584Z,6.20
2022-10-26T01:54:21.914Z,5.80
2022-10-26T01:55:22.262Z,6.30
2022-10-26T01:56:22.503Z,6.00
2022-10-26T01:57:22.732Z,5.60
2022-10-26T01:58:22.966Z,5.60
2022-10-26T01:59:23.192Z,5.70
2022-10-26T02:00:23.559Z,5.50
2022-10-26T02:01:23.796Z,5.00
2022-10-26T02:02:24.021Z,4.80
2022-10-26T02:03:24.423Z,5.00
2022-10-26T02:05:24.965Z,5.10
2022-10-26T02:06:25.186Z,5.30
2022-10-26T02:07:25.436Z,5.40
2022-10-26T02:08:25.689Z,4.80
2022-10-26T02:09:25.910Z,4.90
2022-10-26T02:10:26.277Z,5.20
2022-10-26T02:11:26.528Z,5.70
2022-10-26T02:12:26.767Z,5.70
2022-10-26T02:13:27.067Z,6.20
2022-10-26T02:14:27.328Z,5.60
2022-10-26T02:15:27.669Z,5.70
2022-10-26T02:16:27.848Z,5.30
2022-10-26T02:17:28.207Z,6.00
2022-10-26T02:18:28.520Z,5.50
2022-10-26T02:19:28.781Z,6.10
2022-10-26T02:20:29.047Z,5.90
2022-10-26T02:21:29.272Z,6.10
2022-10-26T02:22:29.641Z,6.10
2022-10-26T02:23:29.840Z,6.40
2022-10-26T02:24:30.191Z,6.30
2022-10-26T02:25:30.430Z,6.50
2022-10-26T02:26:30.659Z,7.10
2022-10-26T02:27:30.991Z,6.30
2022-10-26T02:28:31.338Z,6.50
2022-10-26T02:29:31.572Z,6.90
2022-10-26T02:30:31.821Z,6.40
2022-10-26T02:31:32.060Z,6.90
2022-10-26T02:32:32.425Z,6.70
2022-10-26T02:33:32.645Z,7.20
2022-10-26T02:34:33.022Z,6.80
2022-10-26T02:35:33.255Z,7.20
2022-10-26T02:36:33.514Z,6.90
2022-10-26T02:37:33.754Z,6.30
2022-10-26T02:38:34.100Z,6.90
2022-10-26T02:39:34.434Z,6.30
2022-10-26T02:40:42.285Z,6.30
2022-10-26T02:41:35.099Z,6.40
2022-10-26T02:42:35.395Z,6.70
2022-10-26T02:43:35.703Z,6.70
2022-10-26T02:44:36.027Z,6.70
2022-10-26T02:45:36.339Z,6.00
2022-10-26T02:46:36.639Z,5.90
2022-10-26T02:47:36.969Z,5.70
2022-10-26T02:48:37.273Z,5.50
2022-10-26T02:49:37.605Z,5.70
2022-10-26T02:50:37.907Z,5.60
2022-10-26T02:51:38.267Z,6.10
2022-10-26T02:52:38.555Z,5.80
2022-10-26T02:53:38.867Z,6.20
2022-10-26T02:54:39.188Z,7.00
2022-10-26T02:55:39.489Z,6.30
2022-10-26T02:56:39.789Z,6.70
2022-10-26T02:57:40.102Z,5.90
2022-10-26T02:58:40.398Z,5.70
2022-10-26T02:59:40.710Z,6.80
2022-10-26T03:00:41.012Z,5.70
2022-10-26T03:01:41.487Z,6.20
2022-10-26T03:02:43.509Z,5.50
2022-10-26T03:03:41.875Z,5.10
2022-10-26T03:04:42.080Z,5.80
2022-10-26T03:05:42.382Z,5.60
2022-10-26T03:06:42.700Z,5.20
2022-10-26T03:07:43.009Z,5.20
2022-10-26T03:08:43.311Z,4.60
2022-10-26T03:09:43.632Z,4.70
2022-10-26T03:10:43.942Z,4.50
2022-10-26T03:11:44.262Z,4.80
2022-10-26T03:12:44.551Z,5.10
2022-10-26T03:13:44.854Z,4.90
2022-10-26T03:14:45.174Z,4.30
2022-10-26T03:15:45.473Z,4.50
2022-10-26T03:16:45.813Z,4.40
2022-10-26T03:17:46.242Z,4.90
2022-10-26T03:18:46.448Z,4.90
2022-10-26T03:19:46.763Z,4.10
2022-10-26T03:20:47.054Z,4.90
2022-10-26T03:21:47.352Z,4.40
2022-10-26T03:22:47.642Z,4.60
2022-10-26T03:23:47.926Z,4.10
2022-10-26T03:24:48.235Z,4.20
2022-10-26T03:25:48.515Z,4.70
2022-10-26T03:26:48.813Z,4.60
2022-10-26T03:27:49.333Z,4.60
2022-10-26T03:28:49.326Z,4.20
2022-10-26T03:29:49.628Z,4.10
2022-10-26T03:30:49.922Z,3.80
2022-10-26T03:31:50.200Z,3.80
2022-10-26T03:32:50.477Z,3.60
2022-10-26T03:33:50.755Z,3.40
2022-10-26T03:34:51.034Z,3.80
2022-10-26T03:35:51.328Z,3.60
2022-10-26T03:36:51.590Z,3.60
2022-10-26T03:37:52.165Z,3.80
2022-10-26T03:38:52.222Z,3.50
2022-10-26T03:39:52.497Z,4.50
2022-10-26T03:40:52.776Z,4.00
2022-10-26T03:42:53.468Z,4.10
2022-10-26T03:43:53.566Z,4.80
2022-10-26T03:44:53.849Z,5.10
2022-10-26T03:45:54.105Z,4.50
2022-10-26T03:46:54.369Z,4.50
2022-10-26T03:47:54.628Z,4.20
2022-10-26T03:48:54.893Z,4.30
2022-10-26T03:49:55.192Z,4.90
2022-10-26T03:50:55.429Z,5.30
2022-10-26T03:51:55.699Z,5.60
2022-10-26T03:52:55.956Z,5.10
2022-10-26T03:53:56.216Z,5.40
2022-10-26T03:54:56.484Z,5.50
2022-10-26T03:55:56.731Z,5.30
2022-10-26T03:56:56.972Z,4.80
2022-10-26T03:57:57.231Z,4.10
2022-10-26T03:58:57.473Z,4.80
2022-10-26T03:59:57.732Z,4.80
2022-10-26T04:00:57.983Z,4.80
2022-10-26T04:01:58.311Z,4.80
2022-10-26T04:02:58.464Z,8.00
2022-10-26T04:03:58.793Z,5.70
2022-10-26T04:04:59.075Z,10.30
2022-10-26T04:05:59.352Z,9.90
2022-10-26T04:06:59.611Z,15.60
2022-10-26T04:07:59.875Z,12.00
2022-10-26T04:09:00.135Z,10.80
2022-10-26T04:10:00.417Z,14.00
2022-10-26T04:11:03.709Z,19.60
2022-10-26T04:12:00.967Z,8.70
2022-10-26T04:13:01.223Z,7.30
2022-10-26T04:14:01.462Z,7.00
2022-10-26T04:16:02.046Z,5.60
2022-10-26T04:17:02.296Z,8.40
2022-10-26T04:18:02.538Z,7.70
2022-10-26T04:19:02.770Z,13.40
2022-10-26T04:20:03.058Z,7.80
2022-10-26T04:21:03.298Z,6.20
2022-10-26T04:22:03.546Z,7.00
2022-10-26T04:23:03.778Z,15.10
2022-10-26T04:24:04.038Z,7.20
2022-10-26T04:25:04.299Z,16.20
2022-10-26T04:26:04.549Z,5.10
2022-10-26T04:27:04.800Z,8.70
2022-10-26T04:28:05.058Z,5.90
2022-10-26T04:29:05.272Z,6.80
2022-10-26T04:30:05.643Z,7.60
2022-10-26T04:31:05.858Z,6.80
2022-10-26T04:32:06.220Z,8.80
2022-10-26T04:33:06.461Z,6.40
2022-10-26T04:34:06.702Z,9.50
2022-10-26T04:35:06.942Z,14.80
2022-10-26T04:36:07.190Z,11.60
2022-10-26T04:37:07.421Z,6.00
2022-10-26T04:38:07.816Z,12.80
2022-10-26T04:39:08.066Z,9.80
2022-10-26T04:40:08.309Z,24.00
2022-10-26T04:41:08.553Z,20.10
2022-10-26T04:42:08.800Z,10.20
2022-10-26T04:43:09.034Z,12.40
2022-10-26T04:44:09.295Z,9.80
2022-10-26T04:45:09.539Z,10.10
2022-10-26T04:46:12.161Z,8.80
2022-10-26T04:47:10.074Z,13.10
2022-10-26T04:48:10.337Z,20.90
2022-10-26T04:49:10.570Z,10.40
2022-10-26T04:50:10.825Z,9.90
2022-10-26T04:51:11.056Z,8.20
2022-10-26T04:52:11.314Z,14.40
2022-10-26T04:53:11.535Z,14.90
2022-10-26T04:54:11.775Z,8.00
2022-10-26T04:55:12.008Z,4.80
2022-10-26T04:56:12.244Z,7.30
2022-10-26T04:57:12.452Z,6.60
2022-10-26T04:58:12.792Z,6.20
2022-10-26T04:59:13.124Z,7.20
2022-10-26T05:00:13.476Z,16.90
2022-10-26T05:01:13.820Z,8.60
2022-10-26T05:02:14.098Z,10.30
2022-10-26T05:03:14.357Z,10.00
2022-10-26T05:04:14.741Z,9.00
2022-10-26T05:05:15.303Z,8.60
2022-10-26T05:06:15.288Z,11.80
2022-10-26T05:07:15.663Z,8.40
2022-10-26T05:08:15.779Z,18.40
2022-10-26T05:09:16.033Z,10.20
2022-10-26T05:10:16.288Z,13.60
2022-10-26T05:11:16.543Z,19.20
2022-10-26T05:12:16.813Z,14.50
2022-10-26T05:13:17.173Z,13.00
2022-10-26T05:14:17.494Z,9.80
2022-10-26T05:15:17.722Z,10.50
2022-10-26T05:16:17.970Z,10.70
2022-10-26T05:17:18.239Z,11.30
2022-10-26T05:18:18.531Z,8.10
2022-10-26T05:19:18.764Z,7.70
2022-10-26T05:20:19.017Z,10.20
2022-10-26T05:21:19.284Z,7.70
2022-10-26T05:22:19.535Z,7.40
2022-10-26T05:23:19.753Z,12.30
2022-10-26T05:24:20.016Z,9.00
2022-10-26T05:25:20.267Z,7.90
2022-10-26T05:26:20.517Z,7.80
2022-10-26T05:27:20.744Z,11.60
2022-10-26T05:28:21.003Z,6.90
2022-10-26T05:29:21.235Z,7.20
2022-10-26T05:30:21.489Z,7.50
2022-10-26T05:31:21.717Z,7.10
2022-10-26T05:32:21.972Z,7.00
2022-10-26T05:33:22.205Z,6.70
2022-10-26T05:34:22.436Z,6.20
2022-10-26T05:35:22.676Z,6.40
2022-10-26T05:36:22.923Z,5.60
2022-10-26T05:37:23.148Z,5.80
2022-10-26T05:38:23.571Z,5.60
2022-10-26T05:39:23.812Z,5.70
2022-10-26T05:40:24.087Z,5.60
2022-10-26T05:41:24.316Z,5.60
2022-10-26T05:42:24.550Z,6.90
2022-10-26T05:43:24.769Z,5.90
2022-10-26T05:44:25.012Z,6.20
2022-10-26T05:45:25.249Z,6.20
2022-10-26T05:46:25.513Z,6.50
2022-10-26T05:47:25.874Z,6.60
2022-10-26T05:48:26.020Z,7.80
2022-10-26T05:49:26.371Z,6.90
2022-10-26T05:50:26.500Z,9.30
2022-10-26T05:51:26.758Z,10.80
2022-10-26T05:52:27.086Z,5.60
2022-10-26T05:53:27.305Z,15.10
2022-10-26T05:54:27.584Z,11.70
2022-10-26T05:55:28.090Z,7.40
2022-10-26T05:56:28.751Z,8.90
2022-10-26T05:57:28.424Z,11.60
2022-10-26T05:58:28.696Z,8.30
2022-10-26T05:59:29.233Z,10.10
2022-10-26T06:00:29.352Z,6.70
2022-10-26T06:01:29.612Z,5.60
2022-10-26T06:02:29.806Z,8.70
2022-10-26T06:04:30.343Z,5.10
2022-10-26T06:05:30.623Z,5.40
2022-10-26T06:06:30.873Z,7.20
2022-10-26T06:07:31.153Z,5.00
2022-10-26T06:08:31.402Z,5.10
2022-10-26T06:09:31.826Z,5.20
2022-10-26T06:10:31.955Z,6.10
2022-10-26T06:11:32.245Z,5.80
2022-10-26T06:12:32.534Z,5.30
2022-10-26T06:13:33.086Z,4.80
2022-10-26T06:14:34.595Z,6.30
2022-10-26T06:15:33.455Z,6.50
2022-10-26T06:16:41.456Z,7.50
2022-10-26T06:17:34.006Z,7.30
2022-10-26T06:18:34.369Z,7.40
2022-10-26T06:23:47.571Z,6.90
2022-10-26T06:24:45.221Z,7.00
2022-10-26T06:25:45.525Z,6.70
2022-10-26T06:26:45.810Z,6.60
2022-10-26T06:27:46.063Z,7.20
2022-10-26T06:28:49.911Z,7.10
2022-10-26T06:29:46.652Z,7.10
2022-10-26T06:30:46.925Z,9.90
2022-10-26T06:31:47.181Z,7.40
2022-10-26T06:32:47.677Z,6.00
2022-10-26T06:33:47.702Z,7.70
2022-10-26T06:34:47.943Z,10.20
2022-10-26T06:35:48.222Z,17.90
2022-10-26T06:36:48.547Z,11.50
2022-10-26T06:37:49.142Z,15.40
2022-10-26T06:38:49.142Z,7.50
2022-10-26T06:39:52.610Z,6.90
2022-10-26T06:40:50.673Z,13.00
2022-10-26T06:41:49.997Z,10.60
2022-10-26T06:42:51.184Z,9.70
2022-10-26T06:43:50.538Z,7.00
2022-10-26T06:44:50.806Z,8.90
2022-10-26T06:45:51.118Z,4.50
2022-10-26T06:46:51.436Z,4.80
2022-10-26T06:47:51.926Z,5.10
2022-10-26T06:48:51.976Z,5.80
2022-10-26T06:49:52.267Z,5.20
2022-10-26T06:50:52.578Z,4.40
2022-10-26T06:51:53.150Z,5.00
2022-10-26T06:52:56.577Z,4.90
2022-10-26T06:53:53.446Z,4.50
2022-10-26T06:54:53.627Z,13.10
2022-10-26T06:55:53.985Z,8.40
2022-10-26T06:56:54.370Z,14.20
2022-10-26T06:57:54.705Z,7.40
2022-10-26T06:58:55.341Z,18.70
2022-10-26T06:59:55.215Z,10.80
2022-10-26T07:00:55.609Z,16.80
2022-10-26T07:01:55.884Z,6.40
2022-10-26T07:02:56.166Z,14.60
2022-10-26T07:03:56.411Z,6.80
2022-10-26T07:04:56.708Z,6.40
2022-10-26T07:05:57.041Z,9.30
2022-10-26T07:06:57.356Z,10.70
2022-10-26T07:07:57.690Z,5.40
2022-10-26T07:08:58.014Z,6.80
2022-10-26T07:09:58.340Z,7.00
2022-10-26T07:10:58.801Z,10.30
2022-10-26T07:11:59.092Z,10.60
2022-10-26T07:13:00.864Z,21.90
2022-10-26T07:13:59.984Z,11.20
2022-10-26T07:15:00.697Z,13.90
2022-10-26T07:16:00.334Z,11.80
2022-10-26T07:17:00.614Z,6.00
2022-10-26T07:18:04.141Z,9.90
2022-10-26T07:19:32.196Z,6.10
2022-10-26T07:20:02.622Z,6.20
2022-10-26T07:32:49.973Z,4.70
2022-10-26T07:33:28.896Z,4.60
2022-10-26T07:34:21.647Z,4.40
2022-10-26T07:35:21.686Z,4.50
2022-10-26T07:36:21.967Z,4.70
2022-10-26T07:37:22.114Z,4.90
2022-10-26T07:38:22.385Z,5.20
2022-10-26T07:39:23.759Z,4.90
2022-10-26T07:41:23.330Z,5.70
2022-10-26T07:42:24.077Z,5.90
2022-10-26T07:43:27.145Z,5.90
2022-10-26T07:44:24.023Z,6.50
2022-10-26T07:45:24.306Z,6.10
2022-10-26T07:46:25.055Z,6.20
2022-10-26T07:52:00.241Z,7.00
2022-10-26T07:52:37.713Z,6.90
2022-10-26T07:53:39.268Z,7.30
2022-10-26T08:00:09.964Z,10.00
2022-10-26T08:01:12.106Z,9.80
2022-10-26T08:02:14.519Z,9.20
2022-10-26T08:06:14.545Z,8.70
2022-10-26T08:07:12.551Z,8.80
2022-10-26T08:08:23.553Z,9.30
2022-10-26T08:10:40.621Z,8.90
2022-10-26T08:11:40.434Z,9.20
2022-10-26T08:12:41.768Z,8.70
2022-10-26T08:13:40.885Z,8.90
2022-10-26T08:14:40.982Z,8.70
2022-10-26T08:15:41.302Z,8.80
2022-10-26T08:16:42.403Z,8.30
2022-10-26T08:17:41.868Z,8.20
2022-10-26T08:18:42.126Z,8.30
2022-10-26T08:19:42.411Z,7.90
2022-10-26T08:20:42.738Z,8.70
2022-10-26T08:21:42.999Z,8.30
2022-10-26T08:22:43.280Z,8.20
2022-10-26T08:23:43.568Z,9.20
2022-10-26T08:24:43.813Z,8.30
2022-10-26T08:25:44.093Z,8.80
2022-10-26T08:26:44.366Z,8.70
2022-10-26T08:27:44.675Z,8.30
2022-10-26T08:28:44.955Z,8.70
2022-10-26T08:29:45.226Z,8.30
2022-10-26T08:30:45.594Z,8.20
2022-10-26T08:31:45.818Z,8.30
2022-10-26T08:32:46.186Z,8.40
2022-10-26T08:33:46.466Z,8.00
2022-10-26T08:34:46.628Z,8.20
2022-10-26T08:35:47.017Z,8.10
2022-10-26T08:36:47.287Z,8.80
2022-10-26T08:37:47.568Z,8.50
2022-10-26T08:38:47.909Z,8.70
2022-10-26T08:39:50.569Z,8.00
2022-10-26T08:42:06.576Z,8.40
2022-10-26T08:43:06.448Z,8.40
2022-10-26T08:44:06.805Z,8.40
2022-10-26T08:45:06.900Z,9.00
2022-10-26T08:46:07.172Z,9.10
2022-10-26T08:47:07.460Z,8.00
2022-10-26T08:48:07.722Z,8.50
2022-10-26T08:49:08.173Z,8.70
2022-10-26T08:50:08.291Z,9.10
2022-10-26T08:51:08.617Z,8.40
2022-10-26T08:52:08.908Z,8.50
2022-10-26T08:53:09.172Z,8.80
2022-10-26T08:54:09.519Z,8.70
2022-10-26T08:55:09.835Z,9.00
2022-10-26T08:56:10.133Z,8.50
2022-10-26T08:57:10.384Z,8.60
2022-10-26T08:58:10.676Z,8.50
2022-10-26T08:59:10.944Z,8.80
2022-10-26T09:00:11.205Z,9.00
2022-10-26T09:01:11.562Z,9.40
2022-10-26T09:02:11.725Z,8.20
2022-10-26T09:03:12.006Z,9.30
2022-10-26T09:04:12.279Z,9.30
2022-10-26T09:05:12.568Z,9.10
2022-10-26T09:06:12.886Z,9.00
2022-10-26T09:07:13.211Z,9.40
2022-10-26T09:08:13.507Z,9.00
2022-10-26T09:09:13.847Z,8.80
2022-10-26T09:10:14.232Z,8.90
2022-10-26T09:11:14.363Z,7.90
2022-10-26T09:12:14.685Z,8.20
2022-10-26T09:13:14.979Z,8.70
2022-10-26T09:14:15.257Z,8.60
2022-10-26T09:15:15.500Z,8.00
2022-10-26T09:16:15.766Z,8.00
2022-10-26T09:17:16.069Z,8.00
2022-10-26T09:18:16.366Z,6.80
2022-10-26T09:19:16.622Z,8.30
2022-10-26T09:20:16.874Z,7.90
2022-10-26T09:21:17.149Z,8.70
2022-10-26T09:22:17.425Z,7.60
2022-10-26T09:23:17.681Z,7.70
2022-10-26T09:24:17.962Z,7.60
2022-10-26T09:25:18.231Z,7.20
2022-10-26T09:26:18.515Z,7.20
2022-10-26T09:27:18.809Z,7.50
2022-10-26T09:28:19.067Z,6.70
2022-10-26T09:29:19.343Z,7.50
2022-10-26T09:30:19.687Z,7.60
2022-10-26T09:31:19.978Z,7.80
2022-10-26T09:32:20.246Z,7.30
2022-10-26T09:33:20.534Z,7.70
2022-10-26T09:34:20.825Z,7.70
2022-10-26T09:35:21.118Z,7.00
2022-10-26T09:36:22.325Z,7.00
2022-10-26T09:37:21.657Z,6.90
2022-10-26T09:38:21.927Z,6.40
2022-10-26T09:39:22.227Z,6.90
2022-10-26T09:40:22.589Z,6.30
2022-10-26T09:41:22.802Z,6.80
2022-10-26T09:42:23.847Z,7.20
2022-10-26T09:43:23.358Z,7.00
2022-10-26T09:44:23.629Z,6.70
2022-10-26T09:45:24.646Z,6.50
2022-10-26T09:46:24.254Z,6.50
2022-10-26T09:47:24.552Z,7.60
2022-10-26T09:48:24.808Z,7.20
2022-10-26T09:49:25.180Z,6.00
2022-10-26T09:50:25.347Z,6.60
2022-10-26T09:51:25.609Z,6.40
2022-10-26T09:52:25.916Z,5.50
2022-10-26T09:53:26.154Z,6.60
2022-10-26T09:54:26.410Z,6.10
2022-10-26T09:55:26.690Z,6.50
2022-10-26T09:56:27.041Z,7.10
2022-10-26T09:57:27.200Z,6.70
2022-10-26T09:58:27.440Z,6.20
2022-10-26T09:59:27.725Z,6.30
2022-10-26T10:00:28.830Z,6.00
2022-10-26T10:01:28.308Z,6.20
2022-10-26T10:02:28.662Z,5.90
2022-10-26T10:03:28.793Z,5.40
2022-10-26T10:04:29.054Z,6.50
2022-10-26T10:06:30.547Z,6.60
2022-10-26T10:07:29.871Z,6.10
2022-10-26T10:08:30.161Z,7.70
2022-10-26T10:09:30.459Z,5.80
2022-10-26T10:10:30.695Z,6.30
2022-10-26T10:11:30.990Z,5.60
2022-10-26T10:12:31.225Z,5.00
2022-10-26T10:13:31.488Z,5.30
2022-10-26T10:14:34.629Z,5.00
2022-10-26T10:15:32.998Z,5.90
2022-10-26T10:16:32.346Z,5.80
2022-10-26T10:17:32.649Z,4.50
2022-10-26T10:18:32.941Z,4.70
2022-10-26T10:19:33.217Z,4.90
2022-10-26T10:20:33.489Z,4.60
2022-10-26T10:21:33.779Z,6.10
2022-10-26T10:22:34.041Z,5.00
2022-10-26T10:23:34.336Z,4.90
2022-10-26T10:24:34.579Z,4.80
2022-10-26T10:25:34.865Z,6.20
2022-10-26T10:26:35.134Z,5.00
2022-10-26T10:27:35.418Z,5.20
2022-10-26T10:28:35.691Z,5.60
2022-10-26T10:29:35.962Z,4.80
2022-10-26T10:30:36.893Z,6.00
2022-10-26T10:31:36.609Z,4.20
2022-10-26T10:32:39.213Z,4.80
2022-10-26T10:33:37.173Z,5.30
2022-10-26T10:34:37.444Z,5.10
2022-10-26T10:35:37.715Z,4.50
2022-10-26T10:36:38.004Z,5.30
2022-10-26T10:37:38.284Z,6.90
2022-10-26T10:38:38.544Z,5.10
2022-10-26T10:39:38.847Z,4.90
2022-10-26T10:40:39.096Z,4.90
2022-10-26T10:41:39.378Z,4.50
2022-10-26T10:42:39.645Z,5.00
2022-10-26T10:43:39.935Z,5.60
2022-10-26T10:44:40.178Z,4.60
2022-10-26T10:45:40.466Z,4.50
2022-10-26T10:46:40.762Z,5.00
2022-10-26T10:48:41.279Z,4.50
2022-10-26T10:49:41.590Z,5.00
2022-10-26T10:50:41.866Z,4.60
2022-10-26T10:51:42.160Z,4.90
2022-10-26T10:52:42.418Z,5.80
2022-10-26T10:53:42.716Z,5.00
2022-10-26T10:54:42.998Z,4.30
2022-10-26T10:55:43.289Z,5.80
2022-10-26T10:56:43.572Z,4.00
2022-10-26T10:57:43.872Z,4.90
2022-10-26T10:58:44.159Z,5.10
2022-10-26T10:59:44.490Z,5.20
2022-10-26T11:00:44.925Z,4.00
2022-10-26T11:01:45.120Z,3.70
2022-10-26T11:02:45.370Z,4.20
2022-10-26T11:03:45.604Z,4.30
2022-10-26T11:04:45.882Z,4.60
2022-10-26T11:05:46.193Z,4.40
2022-10-26T11:06:46.485Z,5.00
2022-10-26T11:07:46.927Z,5.10
2022-10-26T11:08:47.044Z,4.00
2022-10-26T11:09:47.266Z,4.20
2022-10-26T11:10:47.504Z,5.30
2022-10-26T11:11:47.788Z,4.60
2022-10-26T11:12:48.096Z,4.60
2022-10-26T11:13:48.354Z,4.60
2022-10-26T11:14:49.634Z,4.70
2022-10-26T11:15:48.836Z,5.10
2022-10-26T11:16:49.128Z,4.40
2022-10-26T11:17:49.619Z,4.20
2022-10-26T11:18:49.727Z,4.80
2022-10-26T11:19:50.004Z,4.90
2022-10-26T11:20:50.315Z,4.30
2022-10-26T11:21:50.617Z,5.00
2022-10-26T11:22:51.306Z,4.40
2022-10-26T11:23:51.269Z,3.60
2022-10-26T11:24:51.527Z,4.20
2022-10-26T11:25:51.828Z,4.00
2022-10-26T11:26:52.117Z,4.40
2022-10-26T11:27:52.611Z,4.40
2022-10-26T11:28:52.722Z,4.10
2022-10-26T11:29:52.982Z,4.00
2022-10-26T11:30:53.252Z,5.40
2022-10-26T11:31:53.521Z,4.00
2022-10-26T11:32:53.803Z,4.60
2022-10-26T11:33:54.079Z,3.80
2022-10-26T11:34:54.424Z,3.40
2022-10-26T11:35:54.755Z,4.00
2022-10-26T11:36:54.914Z,3.90
2022-10-26T11:37:55.173Z,3.50
2022-10-26T11:38:57.633Z,4.50
2022-10-26T11:39:55.745Z,4.50
2022-10-26T11:40:56.023Z,3.80
2022-10-26T11:41:56.313Z,4.40
2022-10-26T11:42:56.586Z,4.00
2022-10-26T11:43:56.862Z,4.70
2022-10-26T11:44:57.146Z,3.40
2022-10-26T11:46:57.689Z,2.70
2022-10-26T11:47:57.953Z,4.20
2022-10-26T11:48:58.172Z,6.60
2022-10-26T11:49:59.399Z,4.20
2022-10-26T11:50:58.743Z,3.20
2022-10-26T11:51:58.998Z,2.70
2022-10-26T11:52:59.306Z,3.80
2022-10-26T11:53:59.592Z,3.80
2022-10-26T11:54:59.895Z,3.60
2022-10-26T11:56:00.283Z,2.90
2022-10-26T11:57:00.390Z,2.90
2022-10-26T11:58:00.729Z,1.90
2022-10-26T12:00:01.321Z,3.50
2022-10-26T12:01:01.599Z,3.70
2022-10-26T12:02:01.873Z,2.60
2022-10-26T12:03:02.145Z,3.00
2022-10-26T12:04:02.428Z,2.50
2022-10-26T12:05:02.662Z,3.50
2022-10-26T12:06:02.920Z,3.00
2022-10-26T12:07:03.175Z,3.30
2022-10-26T12:08:03.435Z,3.00
2022-10-26T12:09:03.705Z,3.50
2022-10-26T12:10:03.951Z,2.20
2022-10-26T12:11:04.253Z,2.40
2022-10-26T12:12:04.548Z,2.50
2022-10-26T12:13:05.574Z,2.10
2022-10-26T12:14:05.175Z,2.50
2022-10-26T12:15:05.427Z,3.10
2022-10-26T12:16:05.701Z,3.40
2022-10-26T12:17:05.955Z,2.10
2022-10-26T12:18:06.287Z,1.60
2022-10-26T12:19:06.518Z,1.50
2022-10-26T12:20:06.831Z,2.00
2022-10-26T12:21:07.121Z,2.50
2022-10-26T12:22:07.392Z,2.70
2022-10-26T12:23:07.688Z,2.90
2022-10-26T12:24:07.949Z,1.70
2022-10-26T12:25:12.407Z,3.30
2022-10-26T12:26:09.473Z,2.10
2022-10-26T12:27:08.669Z,2.40
2022-10-26T12:28:08.918Z,2.80
2022-10-26T12:29:09.193Z,2.90
2022-10-26T12:30:09.563Z,3.50
2022-10-26T12:31:09.960Z,2.70
2022-10-26T12:32:10.125Z,2.30
2022-10-26T12:33:10.393Z,1.90
2022-10-26T12:34:10.670Z,2.60
2022-10-26T12:35:10.936Z,1.80
2022-10-26T12:36:11.244Z,2.50
2022-10-26T12:37:11.492Z,1.80
2022-10-26T12:38:11.748Z,2.00
2022-10-26T12:39:12.002Z,4.50
2022-10-26T12:40:12.276Z,2.40
2022-10-26T12:41:12.527Z,2.40
2022-10-26T12:42:12.818Z,2.30
2022-10-26T12:43:13.084Z,2.70
2022-10-26T12:44:13.366Z,2.80
2022-10-26T12:45:13.627Z,2.60
2022-10-26T12:46:13.896Z,1.90
2022-10-26T12:47:14.154Z,3.40
2022-10-26T12:48:27.738Z,2.80
2022-10-26T12:49:15.640Z,3.20
2022-10-26T12:50:14.974Z,2.40
2022-10-26T12:51:15.219Z,2.50
2022-10-26T12:52:15.508Z,1.70
2022-10-26T12:53:15.729Z,2.30
2022-10-26T12:54:15.981Z,2.10
2022-10-26T12:55:16.255Z,2.80
2022-10-26T12:56:16.537Z,3.30
2022-10-26T12:57:16.831Z,2.90
2022-10-26T12:58:17.143Z,3.10
2022-10-26T12:59:17.392Z,2.10
2022-10-26T13:00:17.698Z,2.30
2022-10-26T13:01:18.024Z,2.00
2022-10-26T13:02:18.284Z,2.00
2022-10-26T13:03:18.533Z,2.10
2022-10-26T13:04:18.773Z,2.10
2022-10-26T13:05:19.028Z,2.80
2022-10-26T13:06:19.273Z,2.50
2022-10-26T13:07:19.551Z,3.00
2022-10-26T13:08:19.811Z,2.50
2022-10-26T13:09:20.656Z,2.40
2022-10-26T13:10:20.437Z,3.30
2022-10-26T13:11:20.703Z,2.90
2022-10-26T13:12:21.006Z,2.00
2022-10-26T13:13:21.266Z,2.40
2022-10-26T13:14:21.535Z,3.60
2022-10-26T13:15:21.817Z,3.50
2022-10-26T13:16:22.072Z,5.30
2022-10-26T13:17:22.377Z,2.50
2022-10-26T13:18:22.638Z,2.70
2022-10-26T13:19:24.044Z,2.80
2022-10-26T13:20:23.119Z,2.90
2022-10-26T13:21:23.369Z,3.00
2022-10-26T13:22:23.608Z,3.10
2022-10-26T13:23:23.891Z,2.60
2022-10-26T13:24:24.202Z,2.50
2022-10-26T13:25:24.485Z,2.40
2022-10-26T13:26:24.728Z,3.50
2022-10-26T13:27:24.991Z,2.90
2022-10-26T13:28:25.242Z,3.70
2022-10-26T13:29:25.503Z,2.80
2022-10-26T13:30:25.800Z,3.80
2022-10-26T13:31:26.035Z,4.10
2022-10-26T13:32:26.282Z,2.90
2022-10-26T13:33:28.300Z,2.50
2022-10-26T13:34:26.787Z,2.40
2022-10-26T13:35:27.893Z,3.40
2022-10-26T13:36:27.333Z,3.90
2022-10-26T13:37:27.580Z,4.00
2022-10-26T13:38:27.863Z,3.20
2022-10-26T13:39:28.106Z,2.50
2022-10-26T13:40:28.405Z,3.10
2022-10-26T13:41:28.645Z,2.80
2022-10-26T13:42:29.014Z,3.30
2022-10-26T13:43:29.161Z,4.00
2022-10-26T13:44:29.427Z,3.90
2022-10-26T13:45:29.782Z,4.00
2022-10-26T13:46:30.021Z,4.00
2022-10-26T13:47:30.268Z,3.70
2022-10-26T13:48:30.526Z,3.60
2022-10-26T13:49:30.769Z,3.50
2022-10-26T13:50:32.174Z,3.30
2022-10-26T13:51:31.366Z,2.70
2022-10-26T13:52:31.646Z,2.90
2022-10-26T13:53:31.898Z,2.70
2022-10-26T13:54:32.149Z,3.40
2022-10-26T13:55:32.434Z,3.10
2022-10-26T13:56:32.652Z,3.50
2022-10-26T13:57:32.902Z,3.30
2022-10-26T13:58:33.143Z,3.20
2022-10-26T13:59:33.403Z,2.90
2022-10-26T14:00:33.707Z,2.70
2022-10-26T14:01:34.096Z,2.90